sensor_id;sensor_type;location;lat;lon;timestamp;temperature;humidity
7000;DHT22;3540;53.242;10.408;2023-05-07T00:01:48;8.60;1.00
7000;DHT22;3540;53.242;10.408;2023-05-07T00:04:14;8.60;1.00
7000;DHT22;3540;53.242;10.408;2023-05-07T00:06:40;8.60;1.00
7000;DHT22;3540;53.242;10.408;2023-05-07T00:09:06;8.70;1.00
7000;DHT22;3540;53.242;10.408;2023-05-07T00:11:32;8.70;1.00
7000;DHT22;3540;53.242;10.408;2023-05-07T00:13:58;8.70;1.00
7000;DHT22;3540;53.242;10.408;2023-05-07T00:16:24;8.70;1.00
7000;DHT22;3540;53.242;10.408;2023-05-07T00:18:49;8.70;1.00
7000;DHT22;3540;53.242;10.408;2023-05-07T00:21:15;8.60;1.00
7000;DHT22;3540;53.242;10.408;2023-05-07T00:23:41;8.70;1.00
7000;DHT22;3540;53.242;10.408;2023-05-07T00:26:06;8.70;1.00
7000;DHT22;3540;53.242;10.408;2023-05-07T00:28:32;8.70;1.00
7000;DHT22;3540;53.242;10.408;2023-05-07T00:30:58;8.70;1.00
7000;DHT22;3540;53.242;10.408;2023-05-07T00:33:23;8.70;1.00
7000;DHT22;3540;53.242;10.408;2023-05-07T00:35:49;8.70;1.00
7000;DHT22;3540;53.242;10.408;2023-05-07T00:38:15;8.70;1.00
7000;DHT22;3540;53.242;10.408;2023-05-07T00:40:41;8.70;1.00
7000;DHT22;3540;53.242;10.408;2023-05-07T00:43:06;8.80;1.00
7000;DHT22;3540;53.242;10.408;2023-05-07T00:45:33;8.80;1.00
7000;DHT22;3540;53.242;10.408;2023-05-07T00:48:00;8.80;1.00
7000;DHT22;3540;53.242;10.408;2023-05-07T00:50:26;8.80;1.00
7000;DHT22;3540;53.242;10.408;2023-05-07T00:52:53;8.80;1.00
7000;DHT22;3540;53.242;10.408;2023-05-07T00:55:19;8.80;1.00
7000;DHT22;3540;53.242;10.408;2023-05-07T00:57:45;8.80;1.00
7000;DHT22;3540;53.242;10.408;2023-05-07T01:00:11;8.80;1.00
7000;DHT22;3540;53.242;10.408;2023-05-07T01:02:41;8.80;1.00
7000;DHT22;3540;53.242;10.408;2023-05-07T01:05:09;8.70;1.00
7000;DHT22;3540;53.242;10.408;2023-05-07T01:07:36;8.80;1.00
7000;DHT22;3540;53.242;10.408;2023-05-07T01:10:03;8.80;1.00
7000;DHT22;3540;53.242;10.408;2023-05-07T01:12:30;8.80;1.00
7000;DHT22;3540;53.242;10.408;2023-05-07T01:14:57;8.80;1.00
7000;DHT22;3540;53.242;10.408;2023-05-07T01:17:23;8.80;1.00
7000;DHT22;3540;53.242;10.408;2023-05-07T01:19:49;8.80;1.00
7000;DHT22;3540;53.242;10.408;2023-05-07T01:22:16;8.90;1.00
7000;DHT22;3540;53.242;10.408;2023-05-07T01:24:46;8.80;1.00
7000;DHT22;3540;53.242;10.408;2023-05-07T01:27:11;8.80;1.00
7000;DHT22;3540;53.242;10.408;2023-05-07T01:29:37;8.80;1.00
7000;DHT22;3540;53.242;10.408;2023-05-07T01:32:03;8.80;1.00
7000;DHT22;3540;53.242;10.408;2023-05-07T01:34:31;8.80;1.00
7000;DHT22;3540;53.242;10.408;2023-05-07T01:36:58;8.80;1.00
7000;DHT22;3540;53.242;10.408;2023-05-07T01:39:26;8.80;1.00
7000;DHT22;3540;53.242;10.408;2023-05-07T01:41:54;8.80;1.00
7000;DHT22;3540;53.242;10.408;2023-05-07T01:44:21;8.80;1.00
7000;DHT22;3540;53.242;10.408;2023-05-07T01:46:47;8.80;1.00
7000;DHT22;3540;53.242;10.408;2023-05-07T01:49:13;8.70;1.00
7000;DHT22;3540;53.242;10.408;2023-05-07T01:51:40;8.80;1.00
7000;DHT22;3540;53.242;10.408;2023-05-07T01:54:05;8.80;1.00
7000;DHT22;3540;53.242;10.408;2023-05-07T01:56:32;8.70;1.00
7000;DHT22;3540;53.242;10.408;2023-05-07T01:58:57;8.70;1.00
7000;DHT22;3540;53.242;10.408;2023-05-07T02:01:23;8.70;1.00
7000;DHT22;3540;53.242;10.408;2023-05-07T02:03:49;8.70;1.00
7000;DHT22;3540;53.242;10.408;2023-05-07T02:06:14;8.70;1.00
7000;DHT22;3540;53.242;10.408;2023-05-07T02:08:40;8.70;1.00
7000;DHT22;3540;53.242;10.408;2023-05-07T02:11:06;8.70;1.00
7000;DHT22;3540;53.242;10.408;2023-05-07T02:13:33;8.70;1.00
7000;DHT22;3540;53.242;10.408;2023-05-07T02:15:59;8.70;1.00
7000;DHT22;3540;53.242;10.408;2023-05-07T02:18:24;8.70;1.00
7000;DHT22;3540;53.242;10.408;2023-05-07T02:20:50;8.80;1.00
7000;DHT22;3540;53.242;10.408;2023-05-07T02:23:16;8.70;1.00
7000;DHT22;3540;53.242;10.408;2023-05-07T02:25:41;8.70;1.00
7000;DHT22;3540;53.242;10.408;2023-05-07T02:28:07;8.70;1.00
7000;DHT22;3540;53.242;10.408;2023-05-07T02:30:33;8.60;1.00
7000;DHT22;3540;53.242;10.408;2023-05-07T02:32:58;8.70;1.00
7000;DHT22;3540;53.242;10.408;2023-05-07T02:35:28;8.70;1.00
7000;DHT22;3540;53.242;10.408;2023-05-07T02:37:53;8.70;1.00
7000;DHT22;3540;53.242;10.408;2023-05-07T02:40:19;8.70;1.00
7000;DHT22;3540;53.242;10.408;2023-05-07T02:42:44;8.70;1.00
7000;DHT22;3540;53.242;10.408;2023-05-07T02:45:10;8.60;1.00
7000;DHT22;3540;53.242;10.408;2023-05-07T02:47:36;8.60;1.00
7000;DHT22;3540;53.242;10.408;2023-05-07T02:50:02;8.70;1.00
7000;DHT22;3540;53.242;10.408;2023-05-07T02:52:28;8.60;1.00
7000;DHT22;3540;53.242;10.408;2023-05-07T02:54:53;8.70;1.00
7000;DHT22;3540;53.242;10.408;2023-05-07T02:57:19;8.60;1.00
7000;DHT22;3540;53.242;10.408;2023-05-07T02:59:45;8.60;1.00
7000;DHT22;3540;53.242;10.408;2023-05-07T03:02:10;8.60;1.00
7000;DHT22;3540;53.242;10.408;2023-05-07T03:04:36;8.60;1.00
7000;DHT22;3540;53.242;10.408;2023-05-07T03:07:02;8.60;1.00
7000;DHT22;3540;53.242;10.408;2023-05-07T03:09:27;8.60;1.00
7000;DHT22;3540;53.242;10.408;2023-05-07T03:11:53;8.70;1.00
7000;DHT22;3540;53.242;10.408;2023-05-07T03:14:18;8.70;1.00
7000;DHT22;3540;53.242;10.408;2023-05-07T03:16:44;8.70;1.00
7000;DHT22;3540;53.242;10.408;2023-05-07T03:19:10;8.70;1.00
7000;DHT22;3540;53.242;10.408;2023-05-07T03:21:35;8.70;1.00
7000;DHT22;3540;53.242;10.408;2023-05-07T03:24:01;8.70;1.00
7000;DHT22;3540;53.242;10.408;2023-05-07T03:26:26;8.60;1.00
7000;DHT22;3540;53.242;10.408;2023-05-07T03:28:52;8.70;1.00
7000;DHT22;3540;53.242;10.408;2023-05-07T03:31:18;8.70;1.00
7000;DHT22;3540;53.242;10.408;2023-05-07T03:33:54;8.70;1.00
7000;DHT22;3540;53.242;10.408;2023-05-07T03:36:20;8.70;1.00
7000;DHT22;3540;53.242;10.408;2023-05-07T03:38:46;8.70;1.00
7000;DHT22;3540;53.242;10.408;2023-05-07T03:41:12;8.70;1.00
7000;DHT22;3540;53.242;10.408;2023-05-07T03:43:37;8.80;1.00
7000;DHT22;3540;53.242;10.408;2023-05-07T03:46:03;8.80;1.00
7000;DHT22;3540;53.242;10.408;2023-05-07T03:48:29;8.70;1.00
7000;DHT22;3540;53.242;10.408;2023-05-07T03:50:55;8.70;1.00
7000;DHT22;3540;53.242;10.408;2023-05-07T03:53:21;8.70;1.00
7000;DHT22;3540;53.242;10.408;2023-05-07T03:55:46;8.70;1.00
7000;DHT22;3540;53.242;10.408;2023-05-07T03:58:12;8.70;1.00
7000;DHT22;3540;53.242;10.408;2023-05-07T04:00:37;8.70;1.00
7000;DHT22;3540;53.242;10.408;2023-05-07T04:03:05;8.70;1.00
7000;DHT22;3540;53.242;10.408;2023-05-07T04:05:31;8.80;1.00
7000;DHT22;3540;53.242;10.408;2023-05-07T04:08:00;8.80;1.00
7000;DHT22;3540;53.242;10.408;2023-05-07T04:10:26;8.70;1.00
7000;DHT22;3540;53.242;10.408;2023-05-07T04:12:53;8.70;1.00
7000;DHT22;3540;53.242;10.408;2023-05-07T04:15:19;8.80;1.00
7000;DHT22;3540;53.242;10.408;2023-05-07T04:17:45;8.80;1.00
7000;DHT22;3540;53.242;10.408;2023-05-07T04:20:14;8.80;1.00
7000;DHT22;3540;53.242;10.408;2023-05-07T04:22:40;8.90;1.00
7000;DHT22;3540;53.242;10.408;2023-05-07T04:25:06;8.90;1.00
7000;DHT22;3540;53.242;10.408;2023-05-07T04:27:33;8.80;1.00
7000;DHT22;3540;53.242;10.408;2023-05-07T04:29:58;8.80;1.00
7000;DHT22;3540;53.242;10.408;2023-05-07T04:32:26;8.70;1.00
7000;DHT22;3540;53.242;10.408;2023-05-07T04:34:52;8.80;1.00
7000;DHT22;3540;53.242;10.408;2023-05-07T04:37:17;8.80;1.00
7000;DHT22;3540;53.242;10.408;2023-05-07T04:39:43;8.80;1.00
7000;DHT22;3540;53.242;10.408;2023-05-07T04:42:09;8.90;1.00
7000;DHT22;3540;53.242;10.408;2023-05-07T04:44:35;8.90;1.00
7000;DHT22;3540;53.242;10.408;2023-05-07T04:47:02;8.90;1.00
7000;DHT22;3540;53.242;10.408;2023-05-07T04:49:28;8.90;1.00
7000;DHT22;3540;53.242;10.408;2023-05-07T04:51:53;9.00;1.00
7000;DHT22;3540;53.242;10.408;2023-05-07T04:54:19;9.00;1.00
7000;DHT22;3540;53.242;10.408;2023-05-07T04:56:45;9.00;1.00
7000;DHT22;3540;53.242;10.408;2023-05-07T04:59:10;8.90;1.00
7000;DHT22;3540;53.242;10.408;2023-05-07T05:01:36;9.00;1.00
7000;DHT22;3540;53.242;10.408;2023-05-07T05:04:02;9.00;1.00
7000;DHT22;3540;53.242;10.408;2023-05-07T05:06:27;9.00;1.00
7000;DHT22;3540;53.242;10.408;2023-05-07T05:08:53;9.00;1.00
7000;DHT22;3540;53.242;10.408;2023-05-07T05:11:18;9.00;1.00
7000;DHT22;3540;53.242;10.408;2023-05-07T05:13:44;9.00;1.00
7000;DHT22;3540;53.242;10.408;2023-05-07T05:16:10;8.90;1.00
7000;DHT22;3540;53.242;10.408;2023-05-07T05:18:35;9.00;1.00
7000;DHT22;3540;53.242;10.408;2023-05-07T05:21:01;9.00;1.00
7000;DHT22;3540;53.242;10.408;2023-05-07T05:23:27;9.10;1.00
7000;DHT22;3540;53.242;10.408;2023-05-07T05:25:56;9.10;1.00
7000;DHT22;3540;53.242;10.408;2023-05-07T05:28:23;9.10;1.00
7000;DHT22;3540;53.242;10.408;2023-05-07T05:30:49;9.10;1.00
7000;DHT22;3540;53.242;10.408;2023-05-07T05:33:15;9.00;1.00
7000;DHT22;3540;53.242;10.408;2023-05-07T05:35:41;9.00;1.00
7000;DHT22;3540;53.242;10.408;2023-05-07T05:38:06;9.00;1.00
7000;DHT22;3540;53.242;10.408;2023-05-07T05:40:32;9.10;1.00
7000;DHT22;3540;53.242;10.408;2023-05-07T05:42:58;9.20;1.00
7000;DHT22;3540;53.242;10.408;2023-05-07T05:45:24;9.10;1.00
7000;DHT22;3540;53.242;10.408;2023-05-07T05:47:50;9.20;1.00
7000;DHT22;3540;53.242;10.408;2023-05-07T05:50:16;9.10;1.00
7000;DHT22;3540;53.242;10.408;2023-05-07T05:52:41;9.20;1.00
7000;DHT22;3540;53.242;10.408;2023-05-07T05:55:08;9.20;1.00
7000;DHT22;3540;53.242;10.408;2023-05-07T05:57:33;9.20;1.00
7000;DHT22;3540;53.242;10.408;2023-05-07T06:00:00;9.30;1.00
7000;DHT22;3540;53.242;10.408;2023-05-07T06:02:26;9.20;1.00
7000;DHT22;3540;53.242;10.408;2023-05-07T06:04:52;9.30;1.00
7000;DHT22;3540;53.242;10.408;2023-05-07T06:07:18;9.30;1.00
7000;DHT22;3540;53.242;10.408;2023-05-07T06:09:44;9.30;1.00
7000;DHT22;3540;53.242;10.408;2023-05-07T06:12:09;9.40;1.00
7000;DHT22;3540;53.242;10.408;2023-05-07T06:14:35;9.40;1.00
7000;DHT22;3540;53.242;10.408;2023-05-07T06:17:00;9.40;1.00
7000;DHT22;3540;53.242;10.408;2023-05-07T06:19:26;9.40;1.00
7000;DHT22;3540;53.242;10.408;2023-05-07T06:21:53;9.40;1.00
7000;DHT22;3540;53.242;10.408;2023-05-07T06:24:19;9.40;1.00
7000;DHT22;3540;53.242;10.408;2023-05-07T06:26:44;9.40;1.00
7000;DHT22;3540;53.242;10.408;2023-05-07T06:29:10;9.50;1.00
7000;DHT22;3540;53.242;10.408;2023-05-07T06:31:36;9.30;1.00
7000;DHT22;3540;53.242;10.408;2023-05-07T06:34:02;9.40;1.00
7000;DHT22;3540;53.242;10.408;2023-05-07T06:36:28;9.50;1.00
7000;DHT22;3540;53.242;10.408;2023-05-07T06:38:53;9.50;1.00
7000;DHT22;3540;53.242;10.408;2023-05-07T06:41:19;9.60;1.00
7000;DHT22;3540;53.242;10.408;2023-05-07T06:43:45;9.50;1.00
7000;DHT22;3540;53.242;10.408;2023-05-07T06:46:11;9.60;1.00
7000;DHT22;3540;53.242;10.408;2023-05-07T06:48:37;9.60;1.00
7000;DHT22;3540;53.242;10.408;2023-05-07T06:51:02;9.60;1.00
7000;DHT22;3540;53.242;10.408;2023-05-07T06:53:28;9.60;1.00
7000;DHT22;3540;53.242;10.408;2023-05-07T06:55:56;9.60;1.00
7000;DHT22;3540;53.242;10.408;2023-05-07T06:58:21;9.60;1.00
7000;DHT22;3540;53.242;10.408;2023-05-07T07:00:47;9.60;1.00
7000;DHT22;3540;53.242;10.408;2023-05-07T07:03:13;9.70;1.00
7000;DHT22;3540;53.242;10.408;2023-05-07T07:05:40;9.70;1.00
7000;DHT22;3540;53.242;10.408;2023-05-07T07:08:06;9.70;1.00
7000;DHT22;3540;53.242;10.408;2023-05-07T07:10:32;9.70;1.00
7000;DHT22;3540;53.242;10.408;2023-05-07T07:12:57;9.70;1.00
7000;DHT22;3540;53.242;10.408;2023-05-07T07:15:23;9.80;1.00
7000;DHT22;3540;53.242;10.408;2023-05-07T07:17:50;9.80;1.00
7000;DHT22;3540;53.242;10.408;2023-05-07T07:20:16;9.80;1.00
7000;DHT22;3540;53.242;10.408;2023-05-07T07:22:41;9.70;1.00
7000;DHT22;3540;53.242;10.408;2023-05-07T07:25:10;9.80;1.00
7000;DHT22;3540;53.242;10.408;2023-05-07T07:27:36;9.90;1.00
7000;DHT22;3540;53.242;10.408;2023-05-07T07:30:03;9.90;1.00
7000;DHT22;3540;53.242;10.408;2023-05-07T07:32:28;10.00;1.00
7000;DHT22;3540;53.242;10.408;2023-05-07T07:34:54;10.10;1.00
7000;DHT22;3540;53.242;10.408;2023-05-07T07:37:20;9.90;1.00
7000;DHT22;3540;53.242;10.408;2023-05-07T07:39:45;9.90;1.00
7000;DHT22;3540;53.242;10.408;2023-05-07T07:42:11;10.10;1.00
7000;DHT22;3540;53.242;10.408;2023-05-07T07:44:36;10.10;1.00
7000;DHT22;3540;53.242;10.408;2023-05-07T07:47:02;10.20;1.00
7000;DHT22;3540;53.242;10.408;2023-05-07T07:49:27;10.20;1.00
7000;DHT22;3540;53.242;10.408;2023-05-07T07:51:53;10.10;1.00
7000;DHT22;3540;53.242;10.408;2023-05-07T07:54:19;10.20;1.00
7000;DHT22;3540;53.242;10.408;2023-05-07T07:56:44;10.10;1.00
7000;DHT22;3540;53.242;10.408;2023-05-07T07:59:10;10.20;1.00
7000;DHT22;3540;53.242;10.408;2023-05-07T08:01:35;10.30;1.00
7000;DHT22;3540;53.242;10.408;2023-05-07T08:04:01;10.50;1.00
7000;DHT22;3540;53.242;10.408;2023-05-07T08:06:28;10.50;1.00
7000;DHT22;3540;53.242;10.408;2023-05-07T08:08:54;10.50;1.00
7000;DHT22;3540;53.242;10.408;2023-05-07T08:11:20;10.60;1.00
7000;DHT22;3540;53.242;10.408;2023-05-07T08:13:48;10.70;1.00
7000;DHT22;3540;53.242;10.408;2023-05-07T08:16:13;10.60;1.00
7000;DHT22;3540;53.242;10.408;2023-05-07T08:18:39;10.40;1.00
7000;DHT22;3540;53.242;10.408;2023-05-07T08:21:05;10.50;1.00
7000;DHT22;3540;53.242;10.408;2023-05-07T08:23:31;10.40;1.00
7000;DHT22;3540;53.242;10.408;2023-05-07T08:25:57;10.50;1.00
7000;DHT22;3540;53.242;10.408;2023-05-07T08:28:22;10.60;1.00
7000;DHT22;3540;53.242;10.408;2023-05-07T08:30:50;10.60;1.00
7000;DHT22;3540;53.242;10.408;2023-05-07T08:33:15;10.30;1.00
7000;DHT22;3540;53.242;10.408;2023-05-07T08:35:41;10.40;1.00
7000;DHT22;3540;53.242;10.408;2023-05-07T08:38:07;10.50;1.00
7000;DHT22;3540;53.242;10.408;2023-05-07T08:40:37;10.70;1.00
7000;DHT22;3540;53.242;10.408;2023-05-07T08:43:05;11.00;1.00
7000;DHT22;3540;53.242;10.408;2023-05-07T08:45:33;11.10;1.00
7000;DHT22;3540;53.242;10.408;2023-05-07T08:48:01;11.20;1.00
7000;DHT22;3540;53.242;10.408;2023-05-07T08:50:27;11.10;1.00
7000;DHT22;3540;53.242;10.408;2023-05-07T08:52:53;11.00;1.00
7000;DHT22;3540;53.242;10.408;2023-05-07T08:55:20;11.00;1.00
7000;DHT22;3540;53.242;10.408;2023-05-07T08:57:45;11.10;1.00
7000;DHT22;3540;53.242;10.408;2023-05-07T09:00:12;11.10;1.00
7000;DHT22;3540;53.242;10.408;2023-05-07T09:02:38;11.20;1.00
7000;DHT22;3540;53.242;10.408;2023-05-07T09:05:04;11.30;1.00
7000;DHT22;3540;53.242;10.408;2023-05-07T09:07:30;11.20;1.00
7000;DHT22;3540;53.242;10.408;2023-05-07T09:09:56;11.00;1.00
7000;DHT22;3540;53.242;10.408;2023-05-07T09:12:22;10.60;1.00
7000;DHT22;3540;53.242;10.408;2023-05-07T09:14:49;10.60;1.00
7000;DHT22;3540;53.242;10.408;2023-05-07T09:17:18;10.90;1.00
7000;DHT22;3540;53.242;10.408;2023-05-07T09:19:45;11.20;1.00
7000;DHT22;3540;53.242;10.408;2023-05-07T09:22:14;11.30;1.00
7000;DHT22;3540;53.242;10.408;2023-05-07T09:24:39;11.40;1.00
7000;DHT22;3540;53.242;10.408;2023-05-07T09:27:06;11.50;1.00
7000;DHT22;3540;53.242;10.408;2023-05-07T09:29:32;11.30;1.00
7000;DHT22;3540;53.242;10.408;2023-05-07T09:32:08;11.30;1.00
7000;DHT22;3540;53.242;10.408;2023-05-07T09:34:34;11.50;1.00
7000;DHT22;3540;53.242;10.408;2023-05-07T09:37:04;11.60;1.00
7000;DHT22;3540;53.242;10.408;2023-05-07T09:39:46;11.50;1.00
7000;DHT22;3540;53.242;10.408;2023-05-07T09:42:12;11.60;1.00
7000;DHT22;3540;53.242;10.408;2023-05-07T09:44:38;11.50;1.00
7000;DHT22;3540;53.242;10.408;2023-05-07T09:47:05;11.40;99.90
7000;DHT22;3540;53.242;10.408;2023-05-07T09:49:35;11.40;1.00
7000;DHT22;3540;53.242;10.408;2023-05-07T09:52:03;11.50;99.90
7000;DHT22;3540;53.242;10.408;2023-05-07T09:54:35;11.40;1.00
7000;DHT22;3540;53.242;10.408;2023-05-07T09:57:04;11.50;99.90
7000;DHT22;3540;53.242;10.408;2023-05-07T09:59:31;11.50;99.90
7000;DHT22;3540;53.242;10.408;2023-05-07T10:01:58;11.50;99.90
7000;DHT22;3540;53.242;10.408;2023-05-07T10:04:25;11.50;99.90
7000;DHT22;3540;53.242;10.408;2023-05-07T10:06:52;11.40;99.90
7000;DHT22;3540;53.242;10.408;2023-05-07T10:09:19;11.70;1.00
7000;DHT22;3540;53.242;10.408;2023-05-07T10:11:45;11.90;99.90
7000;DHT22;3540;53.242;10.408;2023-05-07T10:14:11;11.90;99.90
7000;DHT22;3540;53.242;10.408;2023-05-07T10:16:37;12.20;99.90
7000;DHT22;3540;53.242;10.408;2023-05-07T10:19:04;12.10;99.90
7000;DHT22;3540;53.242;10.408;2023-05-07T10:21:30;12.10;99.90
7000;DHT22;3540;53.242;10.408;2023-05-07T10:24:04;12.40;99.90
7000;DHT22;3540;53.242;10.408;2023-05-07T10:26:36;12.40;99.90
7000;DHT22;3540;53.242;10.408;2023-05-07T10:29:07;11.70;99.90
7000;DHT22;3540;53.242;10.408;2023-05-07T10:34:14;11.80;99.90
7000;DHT22;3540;53.242;10.408;2023-05-07T10:36:40;11.50;99.90
7000;DHT22;3540;53.242;10.408;2023-05-07T10:39:07;11.80;99.90
7000;DHT22;3540;53.242;10.408;2023-05-07T10:41:36;12.00;99.90
7000;DHT22;3540;53.242;10.408;2023-05-07T10:44:02;12.10;99.90
7000;DHT22;3540;53.242;10.408;2023-05-07T10:46:28;12.00;99.90
7000;DHT22;3540;53.242;10.408;2023-05-07T10:51:26;11.70;99.90
7000;DHT22;3540;53.242;10.408;2023-05-07T10:56:43;12.10;99.90
7000;DHT22;3540;53.242;10.408;2023-05-07T11:01:59;11.80;99.90
7000;DHT22;3540;53.242;10.408;2023-05-07T11:04:25;11.90;99.90
7000;DHT22;3540;53.242;10.408;2023-05-07T11:15:09;12.00;99.90
7000;DHT22;3540;53.242;10.408;2023-05-07T11:17:53;12.50;99.90
7000;DHT22;3540;53.242;10.408;2023-05-07T11:20:19;12.30;99.90
7000;DHT22;3540;53.242;10.408;2023-05-07T11:22:46;12.60;99.90
7000;DHT22;3540;53.242;10.408;2023-05-07T11:25:18;12.90;99.90
7000;DHT22;3540;53.242;10.408;2023-05-07T11:27:46;13.10;99.90
7000;DHT22;3540;53.242;10.408;2023-05-07T11:30:18;13.10;99.90
7000;DHT22;3540;53.242;10.408;2023-05-07T11:32:47;13.40;99.90
7000;DHT22;3540;53.242;10.408;2023-05-07T11:35:14;13.60;99.90
7000;DHT22;3540;53.242;10.408;2023-05-07T11:37:40;13.10;99.90
7000;DHT22;3540;53.242;10.408;2023-05-07T11:40:08;12.70;99.90
7000;DHT22;3540;53.242;10.408;2023-05-07T11:42:37;13.10;99.90
7000;DHT22;3540;53.242;10.408;2023-05-07T11:45:05;13.70;99.90
7000;DHT22;3540;53.242;10.408;2023-05-07T11:47:31;13.60;99.90
7000;DHT22;3540;53.242;10.408;2023-05-07T11:50:05;13.10;99.90
7000;DHT22;3540;53.242;10.408;2023-05-07T11:52:31;13.10;99.90
7000;DHT22;3540;53.242;10.408;2023-05-07T11:54:58;13.30;99.90
7000;DHT22;3540;53.242;10.408;2023-05-07T11:57:26;13.40;99.90
7000;DHT22;3540;53.242;10.408;2023-05-07T11:59:58;13.10;99.90
7000;DHT22;3540;53.242;10.408;2023-05-07T12:02:24;13.40;99.90
7000;DHT22;3540;53.242;10.408;2023-05-07T12:04:54;13.70;99.90
7000;DHT22;3540;53.242;10.408;2023-05-07T12:07:20;14.20;99.90
7000;DHT22;3540;53.242;10.408;2023-05-07T12:09:47;14.10;99.90
7000;DHT22;3540;53.242;10.408;2023-05-07T12:12:13;13.90;99.90
7000;DHT22;3540;53.242;10.408;2023-05-07T12:14:44;14.00;99.90
7000;DHT22;3540;53.242;10.408;2023-05-07T12:17:12;13.90;99.90
7000;DHT22;3540;53.242;10.408;2023-05-07T12:19:39;14.30;99.90
7000;DHT22;3540;53.242;10.408;2023-05-07T12:22:07;14.10;99.90
7000;DHT22;3540;53.242;10.408;2023-05-07T12:24:56;14.30;99.90
7000;DHT22;3540;53.242;10.408;2023-05-07T12:27:22;14.40;99.90
7000;DHT22;3540;53.242;10.408;2023-05-07T12:29:49;14.90;99.90
7000;DHT22;3540;53.242;10.408;2023-05-07T12:32:16;15.10;99.90
7000;DHT22;3540;53.242;10.408;2023-05-07T12:34:43;15.20;99.90
7000;DHT22;3540;53.242;10.408;2023-05-07T12:37:09;15.30;99.90
7000;DHT22;3540;53.242;10.408;2023-05-07T12:39:35;16.20;99.90
7000;DHT22;3540;53.242;10.408;2023-05-07T12:42:01;16.40;99.90
7000;DHT22;3540;53.242;10.408;2023-05-07T12:44:31;16.50;99.90
7000;DHT22;3540;53.242;10.408;2023-05-07T12:46:58;16.10;99.90
7000;DHT22;3540;53.242;10.408;2023-05-07T12:49:23;15.80;99.90
7000;DHT22;3540;53.242;10.408;2023-05-07T12:51:50;16.00;99.90
7000;DHT22;3540;53.242;10.408;2023-05-07T12:54:29;16.00;99.90
7000;DHT22;3540;53.242;10.408;2023-05-07T12:57:06;16.20;99.90
7000;DHT22;3540;53.242;10.408;2023-05-07T12:59:33;15.80;99.90
7000;DHT22;3540;53.242;10.408;2023-05-07T13:01:59;15.60;99.90
7000;DHT22;3540;53.242;10.408;2023-05-07T13:04:25;15.90;99.90
7000;DHT22;3540;53.242;10.408;2023-05-07T13:06:50;15.90;99.90
7000;DHT22;3540;53.242;10.408;2023-05-07T13:09:16;15.80;99.90
7000;DHT22;3540;53.242;10.408;2023-05-07T13:11:41;15.90;99.90
7000;DHT22;3540;53.242;10.408;2023-05-07T13:14:07;16.10;99.90
7000;DHT22;3540;53.242;10.408;2023-05-07T13:16:33;16.60;99.90
7000;DHT22;3540;53.242;10.408;2023-05-07T13:18:59;17.30;99.90
7000;DHT22;3540;53.242;10.408;2023-05-07T13:21:24;17.40;99.90
7000;DHT22;3540;53.242;10.408;2023-05-07T13:23:50;16.80;99.90
7000;DHT22;3540;53.242;10.408;2023-05-07T13:26:16;16.30;99.90
7000;DHT22;3540;53.242;10.408;2023-05-07T13:28:42;16.70;99.90
7000;DHT22;3540;53.242;10.408;2023-05-07T13:31:08;17.00;99.90
7000;DHT22;3540;53.242;10.408;2023-05-07T13:33:34;17.40;99.90
7000;DHT22;3540;53.242;10.408;2023-05-07T13:36:01;17.70;99.90
7000;DHT22;3540;53.242;10.408;2023-05-07T13:38:27;17.80;99.90
7000;DHT22;3540;53.242;10.408;2023-05-07T13:40:53;17.70;99.90
7000;DHT22;3540;53.242;10.408;2023-05-07T13:43:19;17.70;99.90
7000;DHT22;3540;53.242;10.408;2023-05-07T13:45:44;17.30;99.90
7000;DHT22;3540;53.242;10.408;2023-05-07T13:48:10;16.90;99.90
7000;DHT22;3540;53.242;10.408;2023-05-07T13:50:35;16.50;99.90
7000;DHT22;3540;53.242;10.408;2023-05-07T13:53:01;16.90;99.90
7000;DHT22;3540;53.242;10.408;2023-05-07T13:55:29;16.20;99.90
7000;DHT22;3540;53.242;10.408;2023-05-07T13:58:02;16.30;99.90
7000;DHT22;3540;53.242;10.408;2023-05-07T14:00:29;16.40;99.90
7000;DHT22;3540;53.242;10.408;2023-05-07T14:02:55;16.60;99.90
7000;DHT22;3540;53.242;10.408;2023-05-07T14:05:21;17.30;99.90
7000;DHT22;3540;53.242;10.408;2023-05-07T14:07:50;17.80;99.90
7000;DHT22;3540;53.242;10.408;2023-05-07T14:10:17;17.60;99.90
7000;DHT22;3540;53.242;10.408;2023-05-07T14:12:44;17.00;99.90
7000;DHT22;3540;53.242;10.408;2023-05-07T14:15:10;17.20;99.90
7000;DHT22;3540;53.242;10.408;2023-05-07T14:17:38;17.40;99.90
7000;DHT22;3540;53.242;10.408;2023-05-07T14:20:04;17.90;99.90
7000;DHT22;3540;53.242;10.408;2023-05-07T14:22:32;17.60;99.90
7000;DHT22;3540;53.242;10.408;2023-05-07T14:24:58;17.80;99.90
7000;DHT22;3540;53.242;10.408;2023-05-07T14:27:23;17.80;99.90
7000;DHT22;3540;53.242;10.408;2023-05-07T14:29:49;18.10;99.90
7000;DHT22;3540;53.242;10.408;2023-05-07T14:32:19;18.50;99.90
7000;DHT22;3540;53.242;10.408;2023-05-07T14:34:45;17.70;99.90
7000;DHT22;3540;53.242;10.408;2023-05-07T14:37:11;17.10;99.90
7000;DHT22;3540;53.242;10.408;2023-05-07T14:39:36;17.40;99.90
7000;DHT22;3540;53.242;10.408;2023-05-07T14:42:02;17.60;99.90
7000;DHT22;3540;53.242;10.408;2023-05-07T14:44:28;17.40;99.90
7000;DHT22;3540;53.242;10.408;2023-05-07T14:46:54;17.80;99.90
7000;DHT22;3540;53.242;10.408;2023-05-07T14:49:20;17.60;99.90
7000;DHT22;3540;53.242;10.408;2023-05-07T14:51:46;17.80;99.90
7000;DHT22;3540;53.242;10.408;2023-05-07T14:54:15;18.50;99.90
7000;DHT22;3540;53.242;10.408;2023-05-07T14:56:41;18.20;99.90
7000;DHT22;3540;53.242;10.408;2023-05-07T14:59:07;18.80;99.90
7000;DHT22;3540;53.242;10.408;2023-05-07T15:01:36;18.20;99.90
7000;DHT22;3540;53.242;10.408;2023-05-07T15:04:05;18.20;99.90
7000;DHT22;3540;53.242;10.408;2023-05-07T15:06:31;18.70;99.90
7000;DHT22;3540;53.242;10.408;2023-05-07T15:08:57;18.40;99.90
7000;DHT22;3540;53.242;10.408;2023-05-07T15:11:23;18.70;99.90
7000;DHT22;3540;53.242;10.408;2023-05-07T15:13:49;18.70;99.90
7000;DHT22;3540;53.242;10.408;2023-05-07T15:16:15;18.20;99.90
7000;DHT22;3540;53.242;10.408;2023-05-07T15:18:40;17.60;99.90
7000;DHT22;3540;53.242;10.408;2023-05-07T15:21:06;17.70;99.90
7000;DHT22;3540;53.242;10.408;2023-05-07T15:23:32;18.00;99.90
7000;DHT22;3540;53.242;10.408;2023-05-07T15:25:57;17.90;99.90
7000;DHT22;3540;53.242;10.408;2023-05-07T15:28:23;18.40;99.90
7000;DHT22;3540;53.242;10.408;2023-05-07T15:30:50;18.80;99.90
7000;DHT22;3540;53.242;10.408;2023-05-07T15:33:16;18.50;99.90
7000;DHT22;3540;53.242;10.408;2023-05-07T15:35:41;17.70;99.90
7000;DHT22;3540;53.242;10.408;2023-05-07T15:38:07;17.80;99.90
7000;DHT22;3540;53.242;10.408;2023-05-07T15:40:34;17.90;99.90
7000;DHT22;3540;53.242;10.408;2023-05-07T15:43:00;18.20;99.90
7000;DHT22;3540;53.242;10.408;2023-05-07T15:45:26;18.00;99.90
7000;DHT22;3540;53.242;10.408;2023-05-07T15:47:52;18.00;99.90
7000;DHT22;3540;53.242;10.408;2023-05-07T15:50:17;18.00;99.90
7000;DHT22;3540;53.242;10.408;2023-05-07T15:52:43;17.80;99.90
7000;DHT22;3540;53.242;10.408;2023-05-07T15:55:10;17.70;99.90
7000;DHT22;3540;53.242;10.408;2023-05-07T15:57:35;17.50;99.90
7000;DHT22;3540;53.242;10.408;2023-05-07T16:00:01;17.50;99.90
7000;DHT22;3540;53.242;10.408;2023-05-07T16:02:30;17.30;99.90
7000;DHT22;3540;53.242;10.408;2023-05-07T16:04:55;16.60;99.90
7000;DHT22;3540;53.242;10.408;2023-05-07T16:07:22;16.70;99.90
7000;DHT22;3540;53.242;10.408;2023-05-07T16:09:48;16.60;99.90
7000;DHT22;3540;53.242;10.408;2023-05-07T16:12:13;16.70;99.90
7000;DHT22;3540;53.242;10.408;2023-05-07T16:14:39;16.60;99.90
7000;DHT22;3540;53.242;10.408;2023-05-07T16:17:04;16.80;99.90